Time;durP1;ratioP1;P1;durP2;ratioP2;P2;SDS_P1;SDS_P2;PMS_P1;PMS_P2;Temp;Humidity;BMP_temperature;BMP_pressure;BME280_temperature;BME280_humidity;BME280_pressure;Samples;Min_cycle;Max_cycle;Signal;HPM_P1;HPM_P2
2021/03/11 00:00:09;;;;;;;16.47;7.93;;;8.50;1.00;;;;;;5072982;28;20386;-76
2021/03/11 00:02:35;;;;;;;16.17;6.87;;;;;;;;;;5072752;28;20440;-71
2021/03/11 00:05:01;;;;;;;16.90;7.00;;;;;;;;;;5072753;28;20428;-71
2021/03/11 00:07:27;;;;;;;13.53;5.40;;;;;;;;;;5069846;28;20457;-71
2021/03/11 00:09:53;;;;;;;12.40;6.07;;;;;;;;;;5069707;28;20464;-71
2021/03/11 00:12:19;;;;;;;11.47;6.13;;;;;;;;;;5072713;28;20397;-71
2021/03/11 00:14:45;;;;;;;15.90;6.07;;;;;;;;;;5066512;28;20452;-71
2021/03/11 00:17:11;;;;;;;14.00;7.17;;;;;;;;;;5068155;28;20457;-71
2021/03/11 00:19:37;;;;;;;11.80;6.13;;;;;;;;;;5052121;28;21046;-71
2021/03/11 00:22:05;;;;;;;11.90;6.20;;;8.10;1.00;;;;;;5052422;28;20379;-71
2021/03/11 00:24:31;;;;;;;16.33;6.00;;;;;;;;;;5054778;28;20863;-70
2021/03/11 00:26:57;;;;;;;14.30;7.00;;;;;;;;;;5072461;28;20474;-71
2021/03/11 00:29:24;;;;;;;14.40;6.10;;;;;;;;;;5092382;28;20424;-71
2021/03/11 00:31:50;;;;;;;11.57;5.93;;;;;;;;;;5092454;28;20395;-71
2021/03/11 00:34:17;;;;;;;15.93;5.30;;;8.00;1.00;;;;;;5092969;28;20420;-71
2021/03/11 00:36:43;;;;;;;15.53;7.40;;;;;;;;;;5092303;28;20408;-71
2021/03/11 00:39:09;;;;;;;14.23;6.20;;;;;;;;;;5085907;28;20462;-71
2021/03/11 00:41:35;;;;;;;13.20;5.75;;;8.00;1.00;;;;;;5052353;28;20425;-71
2021/03/11 00:44:01;;;;;;;8.23;4.80;;;;;;;;;;5052217;28;20493;-71
2021/03/11 00:46:27;;;;;;;10.90;5.43;;;8.00;1.00;;;;;;5052786;28;20386;-71
2021/03/11 00:48:53;;;;;;;12.57;6.30;;;;;;;;;;5056316;28;20463;-71
2021/03/11 00:51:18;;;;;;;9.80;5.17;;;8.00;1.00;;;;;;5056037;28;20188;-71
2021/03/11 00:53:44;;;;;;;12.53;6.17;;;;;;;;;;5071417;28;20446;-71
2021/03/11 00:56:10;;;;;;;14.43;6.00;;;;;;;;;;5055947;28;20210;-71
2021/03/11 00:58:36;;;;;;;18.60;4.90;;;;;;;;;;5055901;28;20932;-71
2021/03/11 01:01:02;;;;;;;10.07;5.30;;;7.90;1.00;;;;;;5055693;28;20386;-71
2021/03/11 01:03:29;;;;;;;12.40;6.27;;;;;;;;;;5056208;28;20394;-71
2021/03/11 01:05:54;;;;;;;16.13;6.23;;;7.90;1.00;;;;;;5071160;28;20464;-71
2021/03/11 01:08:20;;;;;;;14.10;6.07;;;8.00;1.00;;;;;;5066965;28;20432;-71
2021/03/11 01:10:46;;;;;;;12.77;6.07;;;;;;;;;;5074719;28;20194;-71
2021/03/11 01:13:12;;;;;;;13.77;5.90;;;7.90;1.00;;;;;;5074329;28;20167;-71
2021/03/11 01:15:42;;;;;;;13.93;6.33;;;7.80;1.00;;;;;;5075100;28;20471;-71
2021/03/11 01:18:09;;;;;;;9.47;5.47;;;7.80;1.00;;;;;;5074502;28;20610;-77
2021/03/11 01:20:35;;;;;;;13.27;5.37;;;7.80;1.00;;;;;;5075217;28;20405;-77
2021/03/11 01:23:01;;;;;;;12.87;6.10;;;;;;;;;;5075413;28;20413;-77
2021/03/11 01:25:26;;;;;;;13.67;6.07;;;7.70;1.00;;;;;;5055417;28;20403;-77
2021/03/11 01:27:52;;;;;;;13.87;5.70;;;;;;;;;;5070198;28;20416;-77
2021/03/11 01:30:19;;;;;;;12.67;5.80;;;7.60;1.00;;;;;;5095736;28;20162;-78
2021/03/11 01:32:44;;;;;;;14.03;6.17;;;7.60;1.00;;;;;;5078353;28;20401;-76
2021/03/11 01:35:11;;;;;;;13.00;5.10;;;7.60;1.00;;;;;;5075350;28;20474;-77
2021/03/11 01:37:36;;;;;;;11.97;5.70;;;7.60;1.00;;;;;;5075069;28;20210;-77
2021/03/11 01:40:04;;;;;;;10.43;5.23;;;7.50;1.00;;;;;;5074511;28;20903;-78
2021/03/11 01:42:30;;;;;;;10.57;4.90;;;;;;;;;;5074935;28;20171;-77
2021/03/11 01:44:56;;;;;;;11.33;5.87;;;;;;;;;;5074756;28;20423;-77
2021/03/11 01:47:22;;;;;;;9.20;5.20;;;7.60;1.00;;;;;;5075117;28;20393;-77
2021/03/11 01:49:48;;;;;;;11.00;5.23;;;;;;;;;;5075551;28;20403;-77
2021/03/11 01:52:14;;;;;;;13.97;5.83;;;7.50;1.00;;;;;;5062041;28;20179;-77
2021/03/11 01:54:40;;;;;;;13.47;5.50;;;;;;;;;;5074792;28;20926;-77
2021/03/11 01:57:06;;;;;;;11.60;5.60;;;;;;;;;;5074819;28;20190;-77
2021/03/11 01:59:32;;;;;;;11.33;5.50;;;;;;;;;;5073949;28;20382;-77
2021/03/11 02:01:59;;;;;;;16.70;5.57;;;7.50;1.00;;;;;;5075162;28;20389;-77
2021/03/11 02:04:25;;;;;;;11.63;5.80;;;;;;;;;;5075053;28;20924;-77
2021/03/11 02:06:51;;;;;;;14.27;5.90;;;7.50;1.00;;;;;;5074716;28;20603;-77
2021/03/11 02:09:18;;;;;;;11.90;5.10;;;7.50;1.00;;;;;;5072750;28;20528;-77
2021/03/11 02:12:06;;;;;;;11.87;5.20;;;7.50;1.00;;;;;;5074209;28;20479;-77
2021/03/11 02:14:54;;;;;;;15.83;5.40;;;7.50;1.00;;;;;;5073985;28;20429;-77
2021/03/11 02:17:24;;;;;;;12.07;5.80;;;7.60;1.00;;;;;;5074499;28;20445;-77
2021/03/11 02:20:12;;;;;;;17.13;5.97;;;7.50;1.00;;;;;;5074189;28;20834;-71
2021/03/11 02:23:05;;;;;;;15.03;5.77;;;7.50;1.00;;;;;;5073606;28;20421;-72
2021/03/11 02:25:44;;;;;;;14.70;5.60;;;7.50;1.00;;;;;;5072863;28;20508;-71
2021/03/11 02:28:19;;;;;;;10.60;5.67;;;7.60;1.00;;;;;;5078729;28;20429;-72
2021/03/11 02:30:46;;;;;;;10.40;5.50;;;7.60;1.00;;;;;;5074166;28;20401;-71
2021/03/11 02:33:13;;;;;;;9.47;4.87;;;7.60;1.00;;;;;;5074357;28;20405;-71
2021/03/11 02:35:41;;;;;;;8.40;4.60;;;7.60;1.00;;;;;;5074336;28;20421;-71
2021/03/11 02:38:10;;;;;;;10.27;5.10;;;7.60;1.00;;;;;;5072886;28;20468;-71
2021/03/11 02:40:36;;;;;;;7.20;4.53;;;7.70;1.00;;;;;;5073968;28;20425;-71
2021/03/11 02:43:12;;;;;;;8.67;4.90;;;7.60;1.00;;;;;;5072115;28;20414;-71
2021/03/11 02:45:39;;;;;;;8.83;4.70;;;7.70;1.00;;;;;;5073808;28;20419;-72
2021/03/11 02:48:07;;;;;;;8.57;4.90;;;7.70;1.00;;;;;;5073876;28;20488;-71
2021/03/11 02:50:35;;;;;;;12.07;4.83;;;7.80;1.00;;;;;;5074310;28;20825;-78
2021/03/11 02:53:10;;;;;;;11.80;4.93;;;7.70;1.00;;;;;;5073213;28;20417;-78
2021/03/11 02:55:38;;;;;;;10.60;5.37;;;7.70;1.00;;;;;;5073756;28;20480;-77
2021/03/11 02:58:10;;;;;;;8.00;4.07;;;7.70;1.00;;;;;;5073579;28;20464;-78
2021/03/11 03:00:38;;;;;;;9.17;4.60;;;7.80;1.00;;;;;;5073633;28;20398;-79
2021/03/11 03:03:08;;;;;;;17.93;4.60;;;7.80;1.00;;;;;;5073380;28;20900;-78
2021/03/11 03:05:34;;;;;;;17.60;4.20;;;7.80;1.00;;;;;;5073674;28;20723;-77
2021/03/11 03:08:01;;;;;;;9.70;4.60;;;;;;;;;;5059232;28;20421;-77
2021/03/11 03:10:30;;;;;;;12.00;5.53;;;7.90;1.00;;;;;;5065891;28;20519;-78
2021/03/11 03:12:58;;;;;;;10.50;4.57;;;7.90;1.00;;;;;;5072816;28;20437;-78
2021/03/11 03:15:25;;;;;;;10.30;4.60;;;;;;;;;;5072630;28;20537;-78
2021/03/11 03:17:52;;;;;;;12.47;5.17;;;8.00;1.00;;;;;;5073781;28;20610;-77
2021/03/11 03:20:20;;;;;;;11.50;4.83;;;8.00;1.00;;;;;;5073237;28;20393;-71
2021/03/11 03:22:48;;;;;;;7.87;4.50;;;8.00;1.00;;;;;;5058548;28;20450;-71
2021/03/11 03:25:14;;;;;;;7.30;4.30;;;8.10;1.00;;;;;;5053072;28;20403;-72
2021/03/11 03:27:40;;;;;;;7.43;4.30;;;;;;;;;;5064875;28;20423;-71
2021/03/11 03:30:09;;;;;;;10.80;5.23;;;8.30;1.00;;;;;;5090673;28;20472;-72
2021/03/11 03:32:35;;;;;;;9.00;4.53;;;;;;;;;;5093164;28;20436;-71
2021/03/11 03:35:01;;;;;;;8.57;4.43;;;;;;;;;;5093719;28;20420;-71
2021/03/11 03:37:27;;;;;;;9.60;4.13;;;8.30;1.00;;;;;;5064401;28;20477;-71
2021/03/11 03:39:53;;;;;;;9.70;4.83;;;;;;;;;;5051731;28;20564;-71
2021/03/11 03:42:20;;;;;;;6.37;4.20;;;;;;;;;;5053090;28;20176;-72
2021/03/11 03:44:46;;;;;;;8.03;4.23;;;;;;;;;;5052673;28;20390;-71
2021/03/11 03:47:12;;;;;;;11.90;4.87;;;;;;;;;;5052842;28;20421;-71
2021/03/11 03:49:40;;;;;;;9.93;4.40;;;8.50;1.00;;;;;;5051730;28;20402;-71
2021/03/11 03:52:07;;;;;;;9.57;4.40;;;8.50;1.00;;;;;;5058033;28;20508;-71
2021/03/11 03:54:39;;;;;;;9.57;4.70;;;8.50;1.00;;;;;;5072702;28;20413;-71
2021/03/11 03:57:10;;;;;;;9.87;5.13;;;8.40;1.00;;;;;;5072572;28;20432;-71
2021/03/11 03:59:39;;;;;;;11.17;4.93;;;8.50;1.00;;;;;;5072827;28;20397;-71
2021/03/11 04:02:05;;;;;;;9.10;4.57;;;;;;;;;;5072617;28;20433;-71
2021/03/11 04:04:37;;;;;;;7.30;3.97;;;8.50;1.00;;;;;;5073010;28;20400;-77
2021/03/11 04:07:07;;;;;;;9.43;3.90;;;8.60;1.00;;;;;;5058386;28;20414;-77
2021/03/11 04:09:33;;;;;;;6.90;3.87;;;;;;;;;;5052516;28;20399;-77
2021/03/11 04:11:59;;;;;;;8.70;4.27;;;;;;;;;;5066415;28;20432;-77
2021/03/11 04:14:27;;;;;;;12.73;5.27;;;8.60;1.00;;;;;;5069179;28;20434;-78
2021/03/11 04:16:54;;;;;;;14.43;4.37;;;8.60;1.00;;;;;;5052610;28;20405;-77
2021/03/11 04:19:22;;;;;;;10.60;5.67;;;8.70;1.00;;;;;;5052596;28;20454;-71
2021/03/11 04:21:49;;;;;;;9.17;5.10;;;;;;;;;;5054050;28;20410;-71
2021/03/11 04:24:15;;;;;;;9.57;4.60;;;8.70;1.00;;;;;;5056429;28;20405;-71
2021/03/11 04:26:42;;;;;;;10.77;5.40;;;;;;;;;;5069115;28;20500;-71
2021/03/11 04:29:08;;;;;;;6.20;4.30;;;;;;;;;;5094686;28;20427;-71
2021/03/11 04:31:34;;;;;;;8.83;3.60;;;8.70;1.00;;;;;;5096642;28;20396;-71
2021/03/11 04:34:01;;;;;;;9.37;4.60;;;;;;;;;;5096672;28;20907;-71
2021/03/11 04:36:28;;;;;;;5.77;3.80;;;8.80;1.00;;;;;;5082370;28;20465;-71
2021/03/11 04:38:54;;;;;;;7.70;4.23;;;8.90;1.00;;;;;;5075978;28;20831;-71
2021/03/11 04:41:20;;;;;;;9.00;4.50;;;;;;;;;;5076280;28;20397;-72
2021/03/11 04:43:47;;;;;;;11.00;4.70;;;;;;;;;;5076113;28;20398;-74
2021/03/11 04:46:14;;;;;;;6.60;4.10;;;8.90;1.00;;;;;;5075000;28;20429;-77
2021/03/11 04:48:40;;;;;;;6.57;3.43;;;;;;;;;;5076192;28;20401;-77
2021/03/11 04:51:07;;;;;;;10.40;3.97;;;8.90;1.00;;;;;;5063393;28;20446;-86
2021/03/11 04:53:34;;;;;;;6.00;3.47;;;9.00;1.00;;;;;;5072392;28;20421;-87
2021/03/11 04:56:00;;;;;;;6.83;3.67;;;;;;;;;;5075455;28;20409;-86
2021/03/11 04:58:26;;;;;;;5.67;3.10;;;;;;;;;;5076855;28;20452;-86
2021/03/11 05:00:54;;;;;;;10.23;4.17;;;;;;;;;;5075405;28;20405;-86
2021/03/11 05:03:21;;;;;;;7.40;4.00;;;;;;;;;;5075286;28;20409;-88
2021/03/11 05:05:47;;;;;;;7.67;4.10;;;;;;;;;;5074822;28;20428;-78
2021/03/11 05:08:13;;;;;;;9.00;4.33;;;;;;;;;;5075597;28;20484;-78
2021/03/11 05:10:40;;;;;;;5.47;2.47;;;9.20;1.00;;;;;;5074454;28;20405;-77
2021/03/11 05:13:06;;;;;;;10.50;4.30;;;9.30;1.00;;;;;;5070837;28;20461;-72
2021/03/11 05:15:31;;;;;;;5.53;2.87;;;9.30;1.00;;;;;;5063129;28;20912;-72
2021/03/11 05:17:57;;;;;;;6.93;3.67;;;9.20;1.00;;;;;;5055644;28;20401;-71
2021/03/11 05:20:26;;;;;;;7.80;3.23;;;;;;;;;;5057262;28;20270;-72
2021/03/11 05:22:53;;;;;;;6.53;3.57;;;9.20;1.00;;;;;;5055333;28;20164;-71
2021/03/11 05:25:19;;;;;;;5.43;3.10;;;9.30;1.00;;;;;;5055494;28;20879;-71
2021/03/11 05:27:45;;;;;;;7.83;4.00;;;9.30;1.00;;;;;;5061538;28;20551;-71
2021/03/11 05:30:12;;;;;;;9.57;4.13;;;9.30;1.00;;;;;;5075330;28;20477;-71
2021/03/11 05:32:39;;;;;;;4.80;3.13;;;9.40;1.00;;;;;;5074270;28;20462;-71
2021/03/11 05:35:06;;;;;;;12.20;3.60;;;9.40;1.00;;;;;;5073580;28;20531;-71
2021/03/11 05:37:31;;;;;;;7.80;4.40;;;9.40;1.00;;;;;;5074965;28;20444;-71
2021/03/11 05:39:58;;;;;;;6.70;3.63;;;9.40;1.00;;;;;;5074934;28;20398;-71
2021/03/11 05:42:25;;;;;;;4.40;2.80;;;9.40;1.00;;;;;;5073598;28;20175;-71
2021/03/11 05:44:52;;;;;;;6.27;3.20;;;9.40;1.00;;;;;;5075114;28;20397;-71
2021/03/11 05:47:18;;;;;;;6.53;3.80;;;;;;;;;;5074939;28;20412;-71
2021/03/11 05:49:44;;;;;;;5.07;3.47;;;9.50;1.00;;;;;;5073291;28;20467;-71
2021/03/11 05:52:11;;;;;;;7.77;3.90;;;9.50;1.00;;;;;;5069797;28;20402;-72
2021/03/11 05:54:37;;;;;;;8.00;4.33;;;;;;;;;;5060477;28;20426;-71
2021/03/11 05:57:05;;;;;;;4.30;3.40;;;9.50;1.00;;;;;;5074808;28;20390;-71
2021/03/11 05:59:32;;;;;;;6.27;3.37;;;9.50;1.00;;;;;;5074629;28;20420;-71
2021/03/11 06:02:03;;;;;;;5.27;3.53;;;9.60;1.00;;;;;;5074694;28;20393;-71
2021/03/11 06:04:29;;;;;;;2.97;2.70;;;;;;;;;;5074751;28;20394;-71
2021/03/11 06:06:56;;;;;;;7.80;4.27;;;;;;;;;;5074954;28;20404;-71
2021/03/11 06:09:23;;;;;;;8.90;4.10;;;9.40;1.00;;;;;;5074207;28;20456;-71
2021/03/11 06:11:49;;;;;;;6.50;3.10;;;;;;;;;;5073793;28;20416;-72
2021/03/11 06:14:15;;;;;;;8.80;3.70;;;9.30;1.00;;;;;;5068152;28;20418;-74
2021/03/11 06:16:49;;;;;;;6.63;3.37;;;9.30;1.00;;;;;;5054473;28;20422;-72
2021/03/11 06:19:16;;;;;;;5.33;3.57;;;;;;;;;;5061751;28;20423;-76
2021/03/11 06:21:45;;;;;;;7.23;3.87;;;;;;;;;;5070133;28;20496;-77
2021/03/11 06:24:11;;;;;;;6.53;3.53;;;;;;;;;;5058131;28;20587;-77
2021/03/11 06:26:37;;;;;;;5.03;2.97;;;;;;;;;;5073478;28;20449;-79
2021/03/11 06:29:04;;;;;;;4.43;3.07;;;;;;;;;;5085788;28;20460;-77
2021/03/11 06:31:33;;;;;;;6.57;3.30;;;9.50;1.00;;;;;;5074846;28;20405;-71
2021/03/11 06:34:00;;;;;;;4.03;3.00;;;9.50;1.00;;;;;;5074076;28;20475;-71
2021/03/11 06:36:29;;;;;;;5.40;3.40;;;9.50;1.00;;;;;;5068650;28;20441;-71
2021/03/11 06:38:54;;;;;;;5.27;3.00;;;9.50;1.00;;;;;;5073525;28;20513;-71
2021/03/11 06:41:20;;;;;;;6.43;3.30;;;;;;;;;;5073971;28;20936;-72
2021/03/11 06:43:54;;;;;;;6.53;3.23;;;9.50;1.00;;;;;;5072312;28;20772;-71
2021/03/11 06:46:22;;;;;;;7.43;3.93;;;9.60;1.00;;;;;;5072250;28;20946;-71
2021/03/11 06:48:48;;;;;;;3.93;2.63;;;;;;;;;;5073720;28;20502;-73
2021/03/11 06:51:19;;;;;;;6.20;3.20;;;9.60;1.00;;;;;;5074013;28;20386;-78
2021/03/11 06:53:59;;;;;;;4.33;2.90;;;9.50;1.00;;;;;;5054104;28;20426;-78
2021/03/11 06:56:26;;;;;;;3.63;2.70;;;9.60;1.00;;;;;;5057063;28;20417;-78
2021/03/11 06:59:09;;;;;;;7.13;3.27;;;9.60;1.00;;;;;;5062405;28;20413;-79
2021/03/11 07:01:48;;;;;;;5.07;3.10;;;9.60;1.00;;;;;;5073861;28;20398;-78
2021/03/11 07:04:32;;;;;;;6.10;3.00;;;9.60;1.00;;;;;;5073680;28;20860;-79
2021/03/11 07:06:58;;;;;;;2.83;2.40;;;;;;;;;;5072381;28;20738;-74
2021/03/11 07:09:39;;;;;;;8.70;2.63;;;9.60;1.00;;;;;;5061801;28;20453;-74
2021/03/11 07:12:05;;;;;;;5.93;3.53;;;9.70;1.00;;;;;;5073361;28;20502;-72
2021/03/11 07:14:31;;;;;;;4.60;2.63;;;;;;;;;;5070961;28;20421;-71
2021/03/11 07:17:20;;;;;;;5.17;2.50;;;9.70;1.00;;;;;;5072991;28;20987;-71
2021/03/11 07:20:14;;;;;;;2.03;1.90;;;9.80;1.00;;;;;;5071599;28;20794;-71
2021/03/11 07:22:41;;;;;;;1.83;1.53;;;9.80;1.00;;;;;;5011493;28;20752;-71
2021/03/11 07:25:47;;;;;;;3.93;2.53;;;9.80;1.00;;;;;;5009554;28;20423;-71
2021/03/11 07:28:26;;;;;;;4.20;2.60;;;9.80;1.00;;;;;;4991025;28;20468;-71
2021/03/11 07:31:00;;;;;;;2.90;2.00;;;9.80;1.00;;;;;;5002169;28;20815;-72
2021/03/11 07:33:27;;;;;;;3.47;1.87;;;9.80;1.00;;;;;;5011130;28;20416;-72
2021/03/11 07:35:55;;;;;;;3.60;2.20;;;9.90;1.00;;;;;;5004215;28;20440;-72
2021/03/11 07:38:23;;;;;;;2.43;1.77;;;9.90;1.00;;;;;;4992982;28;20534;-78
2021/03/11 07:40:54;;;;;;;2.00;1.37;;;9.90;1.00;;;;;;4991430;28;20433;-78
2021/03/11 07:43:21;;;;;;;2.20;2.00;;;10.00;1.00;;;;;;4991532;28;20487;-79
2021/03/11 07:45:47;;;;;;;3.17;1.83;;;10.00;1.00;;;;;;4991539;28;20836;-79
2021/03/11 07:48:14;;;;;;;2.73;1.37;;;;;;;;;;4991210;28;20517;-78
2021/03/11 07:50:41;;;;;;;1.50;1.37;;;10.00;1.00;;;;;;4991493;28;20912;-78
2021/03/11 07:53:13;;;;;;;15.70;1.80;;;9.90;1.00;;;;;;5004820;28;20531;-78
2021/03/11 07:55:39;;;;;;;2.00;1.80;;;10.00;1.00;;;;;;5010394;28;20420;-78
2021/03/11 07:58:16;;;;;;;2.40;2.03;;;10.00;1.00;;;;;;5010198;28;20418;-78
2021/03/11 08:00:42;;;;;;;1.87;1.73;;;;;;;;;;5056681;28;20969;-78
2021/03/11 08:03:20;;;;;;;1.77;1.53;;;10.10;1.00;;;;;;5065362;28;20414;-77
2021/03/11 08:05:46;;;;;;;1.50;1.40;;;;;;;;;;5061036;28;20420;-78
2021/03/11 08:08:25;;;;;;;10.97;3.67;;;10.10;1.00;;;;;;5069336;28;20467;-71
2021/03/11 08:10:51;;;;;;;1.90;1.70;;;;;;;;;;5070114;28;20631;-72
2021/03/11 08:13:27;;;;;;;1.97;1.70;;;10.10;1.00;;;;;;5052532;28;20858;-71
2021/03/11 08:15:57;;;;;;;4.63;2.20;;;10.00;1.00;;;;;;5065618;28;20460;-71
2021/03/11 08:18:32;;;;;;;4.50;2.20;;;10.00;1.00;;;;;;5071036;28;20943;-72
2021/03/11 08:20:59;;;;;;;2.47;1.40;;;10.00;1.00;;;;;;5072323;28;20466;-72
2021/03/11 08:23:30;;;;;;;2.33;1.73;;;10.00;1.00;;;;;;5071007;28;20397;-78
2021/03/11 08:25:56;;;;;;;3.37;2.23;;;10.00;1.00;;;;;;5052646;28;20406;-78
2021/03/11 08:28:22;;;;;;;2.80;1.67;;;;;;;;;;5052436;28;20496;-78
2021/03/11 08:30:51;;;;;;;2.53;1.83;;;10.00;1.00;;;;;;5052800;28;20458;-79
2021/03/11 08:33:19;;;;;;;2.60;1.90;;;10.00;1.00;;;;;;5052655;28;20433;-78
2021/03/11 08:35:47;;;;;;;2.07;1.60;;;7.30;1.00;;;;;;5052608;28;20421;-79
2021/03/11 08:40:55;;;;;;;4.00;2.03;;;10.30;1.00;;;;;;5072699;28;20432;-78
2021/03/11 08:43:39;;;;;;;3.70;2.00;;;10.30;1.00;;;;;;5072377;28;20429;-78
2021/03/11 08:46:08;;;;;;;3.90;1.93;;;10.40;1.00;;;;;;5072608;28;20496;-78
2021/03/11 08:48:52;;;;;;;2.17;1.87;;;10.40;1.00;;;;;;5070734;28;20445;-78
2021/03/11 08:51:17;;;;;;;3.17;1.77;;;10.50;1.00;;;;;;5072379;28;20440;-79
2021/03/11 08:53:56;;;;;;;2.50;2.10;;;10.50;1.00;;;;;;5062963;28;20824;-71
2021/03/11 08:56:22;;;;;;;2.30;1.90;;;10.50;1.00;;;;;;5072245;28;20178;-72
2021/03/11 08:58:56;;;;;;;3.10;1.90;;;10.50;1.00;;;;;;5071989;28;20401;-71
2021/03/11 09:01:44;;;;;;;1.90;1.70;;;10.50;1.00;;;;;;5059420;28;20191;-71
2021/03/11 09:04:27;;;;;;;5.83;2.03;;;10.50;1.00;;;;;;5067170;28;20432;-72
2021/03/11 09:07:06;;;;;;;2.57;1.73;;;10.50;1.00;;;;;;5070397;28;20806;-76
2021/03/11 09:09:46;;;;;;;1.80;1.70;;;10.50;1.00;;;;;;5076912;28;20443;-71
2021/03/11 09:12:12;;;;;;;4.67;1.80;;;;;;;;;;5075721;28;20759;-73
2021/03/11 09:14:40;;;;;;;3.10;2.30;;;10.60;1.00;;;;;;5073813;28;20421;-79
2021/03/11 09:17:17;;;;;;;4.00;2.37;;;10.60;1.00;;;;;;5070965;28;20535;-77
2021/03/11 09:19:46;;;;;;;4.47;2.70;;;10.60;1.00;;;;;;5071118;28;20428;-72
2021/03/11 09:22:28;;;;;;;1.77;1.47;;;10.60;1.00;;;;;;5076034;28;20454;-78
2021/03/11 09:25:04;;;;;;;2.30;1.80;;;10.60;1.00;;;;;;5075562;28;20401;-78
2021/03/11 09:27:31;;;;;;;5.07;2.07;;;10.60;1.00;;;;;;5075469;28;20448;-78
2021/03/11 09:30:00;;;;;;;4.20;1.47;;;10.60;1.00;;;;;;5070324;28;20429;-79
2021/03/11 09:32:28;;;;;;;2.10;1.87;;;10.60;1.00;;;;;;5074968;28;20883;-77
2021/03/11 09:34:58;;;;;;;1.93;1.67;;;10.60;1.00;;;;;;5075597;28;20458;-79
2021/03/11 09:37:47;;;;;;;3.57;2.40;;;10.60;1.00;;;;;;5074412;28;20445;-78
2021/03/11 09:40:33;;;;;;;4.87;2.60;;;10.60;1.00;;;;;;5075257;28;20385;-79
2021/03/11 09:43:15;;;;;;;2.90;2.20;;;10.60;1.00;;;;;;5052796;28;20402;-79
2021/03/11 09:45:48;;;;;;;2.63;2.37;;;10.60;1.00;;;;;;5052812;28;20456;-78
2021/03/11 09:48:18;;;;;;;2.30;1.93;;;10.60;1.00;;;;;;5052017;28;20462;-77
2021/03/11 09:51:12;;;;;;;2.30;2.10;;;10.60;1.00;;;;;;5052681;28;20393;-78
2021/03/11 09:53:46;;;;;;;1.90;1.80;;;10.70;1.00;;;;;;5052955;28;20392;-72
2021/03/11 09:56:23;;;;;;;2.83;2.00;;;10.70;1.00;;;;;;5052582;28;20431;-71
2021/03/11 09:59:06;;;;;;;2.67;2.47;;;10.70;1.00;;;;;;5052566;28;20405;-71
2021/03/11 10:01:38;;;;;;;5.57;2.33;;;10.80;1.00;;;;;;5051998;28;20434;-71
2021/03/11 10:04:15;;;;;;;5.00;2.33;;;10.80;1.00;;;;;;5052457;28;20430;-71
2021/03/11 10:06:51;;;;;;;2.27;2.07;;;10.80;1.00;;;;;;5035656;28;20787;-71
2021/03/11 10:09:17;;;;;;;2.97;2.03;;;;;;;;;;5052779;28;20858;-79
2021/03/11 10:11:48;;;;;;;4.10;2.30;;;10.90;1.00;;;;;;5052459;28;20394;-78
2021/03/11 10:14:23;;;;;;;5.63;2.87;;;10.90;1.00;;;;;;5051870;28;20449;-78
2021/03/11 10:16:54;;;;;;;2.53;2.10;;;10.90;1.00;;;;;;5050895;28;20637;-79
2021/03/11 10:19:29;;;;;;;3.40;2.60;;;10.90;1.00;;;;;;5048029;28;20438;-78
2021/03/11 10:21:59;;;;;;;4.17;2.57;;;11.00;1.00;;;;;;5054526;28;20385;-77
2021/03/11 10:24:36;;;;;;;4.47;2.40;;;10.90;1.00;;;;;;5062949;28;20409;-71
2021/03/11 10:27:04;;;;;;;2.57;2.10;;;11.00;1.00;;;;;;5074226;28;20389;-71
2021/03/11 10:29:32;;;;;;;2.70;2.07;;;11.10;1.00;;;;;;5074067;28;20955;-72
2021/03/11 10:32:05;;;;;;;1.57;1.40;;;11.10;1.00;;;;;;5062084;28;20422;-72
2021/03/11 10:34:43;;;;;;;2.37;2.13;;;11.10;1.00;;;;;;5053158;28;20428;-71
2021/03/11 10:37:13;;;;;;;4.17;2.43;;;11.10;1.00;;;;;;5054059;28;20437;-72
2021/03/11 10:39:51;;;;;;;3.67;2.50;;;11.20;1.00;;;;;;5054342;28;20411;-71
2021/03/11 10:42:17;;;;;;;6.57;2.20;;;11.20;1.00;;;;;;5053936;28;20880;-71
2021/03/11 10:44:57;;;;;;;2.70;2.37;;;11.20;1.00;;;;;;5069317;28;20419;-72
2021/03/11 10:47:24;;;;;;;2.50;2.23;;;11.20;1.00;;;;;;5069737;28;20167;-72
2021/03/11 10:49:50;;;;;;;3.60;2.50;;;11.30;1.00;;;;;;5073813;28;20755;-71
2021/03/11 10:52:17;;;;;;;3.40;2.00;;;;;;;;;;5073970;28;20402;-72
2021/03/11 10:54:43;;;;;;;6.13;2.93;;;;;;;;;;5074252;28;20675;-78
2021/03/11 10:57:17;;;;;;;3.80;2.03;;;11.40;1.00;;;;;;5073712;28;20481;-78
2021/03/11 10:59:49;;;;;;;1.80;1.70;;;11.40;1.00;;;;;;5073704;28;20397;-78
2021/03/11 11:02:15;;;;;;;1.73;1.63;;;11.50;1.00;;;;;;5055228;28;20410;-78
2021/03/11 11:04:41;;;;;;;1.87;1.60;;;;;;;;;;5053849;28;20398;-78
2021/03/11 11:07:08;;;;;;;2.80;1.70;;;11.70;1.00;;;;;;5053670;28;20390;-78
2021/03/11 11:09:34;;;;;;;2.37;1.73;;;;;;;;;;5053616;28;20580;-72
2021/03/11 11:12:00;;;;;;;1.97;1.60;;;;;;;;;;5053478;28;20429;-71
2021/03/11 11:14:26;;;;;;;1.60;1.50;;;;;;;;;;5055851;28;20396;-72
2021/03/11 11:16:52;;;;;;;1.77;1.47;;;;;;;;;;5072326;28;20482;-73
2021/03/11 11:19:18;;;;;;;1.37;1.27;;;;;;;;;;5071211;28;20421;-72
2021/03/11 11:21:44;;;;;;;2.73;1.93;;;;;;;;;;5071515;28;20895;-71
2021/03/11 11:24:10;;;;;;;2.20;1.80;;;12.50;1.00;;;;;;5073429;28;20416;-79
2021/03/11 11:26:36;;;;;;;3.30;1.90;;;;;;;;;;5071883;28;20436;-74
2021/03/11 11:29:05;;;;;;;1.83;1.70;;;;;;;;;;5073192;28;20194;-78
2021/03/11 11:31:31;;;;;;;7.17;1.40;;;;;;;;;;5070925;28;20498;-76
2021/03/11 11:33:57;;;;;;;2.87;1.30;;;;;;;;;;5053584;28;20464;-80
2021/03/11 11:36:23;;;;;;;1.73;1.57;;;12.80;1.00;;;;;;5053572;28;20815;-77
2021/03/11 11:38:49;;;;;;;2.50;1.83;;;12.60;1.00;;;;;;5071703;28;20429;-72
2021/03/11 11:41:16;;;;;;;1.80;1.63;;;12.60;1.00;;;;;;5067656;28;20660;-71
2021/03/11 11:43:42;;;;;;;1.57;1.47;;;;;;;;;;5081522;28;20429;-72
2021/03/11 11:46:08;;;;;;;6.07;1.37;;;;;;;;;;5060800;28;20395;-72
2021/03/11 11:48:34;;;;;;;1.23;1.10;;;;;;;;;;5065632;28;20459;-72
2021/03/11 11:51:00;;;;;;;0.70;0.70;;;;;;;;;;5083300;28;20393;-72
2021/03/11 11:53:26;;;;;;;2.43;1.20;;;;;;;;;;5079066;28;20903;-76
2021/03/11 11:55:52;;;;;;;1.60;1.50;;;;;;;;;;5079761;28;20414;-78
2021/03/11 11:58:19;;;;;;;2.50;1.00;;;;;;;;;;5072833;28;20402;-76
2021/03/11 12:00:45;;;;;;;2.03;0.90;;;11.90;1.00;;;;;;5072922;28;20397;-78
2021/03/11 12:03:12;;;;;;;1.83;1.40;;;;;;;;;;5066677;28;20842;-77
2021/03/11 12:05:37;;;;;;;1.17;1.00;;;12.10;1.00;;;;;;5071580;28;20424;-78
2021/03/11 12:08:04;;;;;;;1.17;1.07;;;;;;;;;;5072620;28;20958;-78
2021/03/11 12:10:30;;;;;;;2.70;1.33;;;12.20;1.00;;;;;;5073015;28;20167;-78
2021/03/11 12:12:56;;;;;;;3.33;1.10;;;;;;;;;;5072809;28;20390;-78
2021/03/11 12:15:22;;;;;;;1.10;1.10;;;;;;;;;;5066102;28;20494;-79
2021/03/11 12:17:48;;;;;;;1.47;1.37;;;12.50;1.00;;;;;;5070497;28;20468;-79
2021/03/11 12:20:14;;;;;;;1.23;1.13;;;12.70;1.00;;;;;;5060762;28;20528;-79
2021/03/11 12:22:40;;;;;;;1.17;1.07;;;;;;;;;;5072343;28;20842;-78
2021/03/11 12:25:06;;;;;;;2.70;1.27;;;12.90;1.00;;;;;;5077777;28;20495;-72
2021/03/11 12:27:32;;;;;;;1.37;1.10;;;;;;;;;;5078303;28;20505;-72
2021/03/11 12:29:58;;;;;;;1.03;0.80;;;;;;;;;;5072532;28;20443;-72
2021/03/11 12:32:25;;;;;;;1.30;0.80;;;;;;;;;;5072422;28;20758;-73
2021/03/11 12:34:50;;;;;;;0.70;0.70;;;13.50;1.00;;;;;;5060503;28;20466;-72
2021/03/11 12:37:16;;;;;;;1.30;1.03;;;13.50;1.00;;;;;;5085196;28;20898;-72
2021/03/11 12:39:42;;;;;;;1.07;0.80;;;;;;;;;;5082832;28;20183;-79
2021/03/11 12:42:08;;;;;;;1.00;0.90;;;13.40;1.00;;;;;;5072714;28;20401;-79
2021/03/11 12:44:34;;;;;;;0.80;0.70;;;13.40;1.00;;;;;;5075636;28;20437;-79
2021/03/11 12:47:00;;;;;;;1.03;0.80;;;;;;;;;;5076311;28;20178;-80
2021/03/11 12:49:26;;;;;;;1.37;1.27;;;;;;;;;;5076158;28;20183;-80
2021/03/11 12:51:52;;;;;;;1.47;1.20;;;13.30;1.00;;;;;;5076013;28;20400;-79
2021/03/11 12:54:18;;;;;;;1.27;0.70;;;13.30;1.00;;;;;;5076546;28;20397;-79
2021/03/11 12:56:44;;;;;;;1.23;0.80;;;;;;;;;;5075960;28;20167;-80
2021/03/11 12:59:09;;;;;;;0.73;0.73;;;13.40;1.00;;;;;;5065158;28;20172;-78
2021/03/11 13:01:35;;;;;;;0.60;0.60;;;;;;;;;;5056100;28;20398;-78
2021/03/11 13:04:01;;;;;;;10.10;0.80;;;;;;;;;;5061276;28;21587;-79
2021/03/11 13:06:27;;;;;;;0.73;0.70;;;13.60;1.00;;;;;;5066216;28;20787;-79
2021/03/11 13:08:53;;;;;;;0.60;0.60;;;;;;;;;;5055864;28;20445;-79
2021/03/11 13:11:21;;;;;;;0.60;0.60;;;;;;;;;;5056149;28;20202;-75
2021/03/11 13:13:47;;;;;;;0.50;0.50;;;;;;;;;;5076536;28;20468;-75
2021/03/11 13:16:12;;;;;;;1.57;0.80;;;13.90;1.00;;;;;;5071844;28;20470;-75
2021/03/11 13:18:38;;;;;;;0.80;0.80;;;;;;;;;;5065014;28;20395;-75
2021/03/11 13:21:04;;;;;;;1.10;0.70;;;14.00;1.00;;;;;;5066250;28;20179;-75
2021/03/11 13:23:30;;;;;;;0.60;0.60;;;14.10;1.00;;;;;;5075629;28;20376;-76
2021/03/11 13:25:56;;;;;;;0.80;0.70;;;;;;;;;;5075928;28;20155;-75
2021/03/11 13:28:22;;;;;;;1.00;0.70;;;14.00;1.00;;;;;;5074984;28;20950;-75
2021/03/11 13:30:50;;;;;;;1.37;0.70;;;;;;;;;;5074593;28;20383;-75
2021/03/11 13:33:16;;;;;;;1.30;0.70;;;14.10;1.00;;;;;;5075025;28;20220;-71
2021/03/11 13:35:41;;;;;;;0.60;0.60;;;14.20;1.00;;;;;;5068668;28;20434;-71
2021/03/11 13:38:07;;;;;;;2.30;0.60;;;;;;;;;;5084876;28;20198;-72
2021/03/11 13:40:33;;;;;;;0.80;0.80;;;14.40;1.00;;;;;;5075644;28;20232;-79
2021/03/11 13:43:02;;;;;;;2.97;0.70;;;;;;;;;;5075220;28;20405;-79